DW4212 La Cabrera ES current weather conditions

sailwx.info

Wind from 327 at 3 knots gusting 8

Air temperature 18.3° C
Dewpoint 5.2° C

Last reported at 2017-Jun-28 19:09 UTC.
Time now 2017-Jun-28 19:34 UTC

Location: N 40°53' W 003°35'.
View on Google Maps.

See reports from other nearby stations

  
Tides and Currents Weather Stations Pressure Air Temp Water Temp Dewpoint Dewpoint Depression Visibility Wind Speed Wind Dir Waves Ship Positions
date/time (UTC)wind fromknots sea level pressurealtimeterstation pressurevisibilityair tempwater tempwave heightnotes
2017-Jun-28 19:09 327 3 gusting 8 18.3
2017-Jun-28 18:59 271 0 gusting 5 18.3
2017-Jun-28 18:49 298 4 gusting 13 18.9
2017-Jun-28 18:39 304 1 gusting 6 19.4
2017-Jun-28 18:29 313 20.0
2017-Jun-28 18:19 306 0 gusting 12 20.0
2017-Jun-28 18:09 304 5 gusting 8 20.6
2017-Jun-28 17:59 306 4 gusting 9 21.1
2017-Jun-28 17:49 313 1 gusting 11 21.1
2017-Jun-28 17:39 301 3 gusting 13 20.6
2017-Jun-28 17:29 322 6 gusting 13 21.1
2017-Jun-28 17:19 298 4 gusting 15 21.1
2017-Jun-28 17:09 316 3 gusting 13 21.1
2017-Jun-28 16:59 257 3 gusting 17 21.1
2017-Jun-28 16:49 287 6 gusting 16 21.7
2017-Jun-28 16:39 307 8 gusting 19 21.7
2017-Jun-28 16:29 282 4 gusting 15 21.7
2017-Jun-28 16:19 266 5 gusting 13 21.7
2017-Jun-28 16:09 265 5 gusting 13 21.7
2017-Jun-28 15:59 302 6 gusting 17 21.7
2017-Jun-28 15:49 260 6 gusting 14 21.7
2017-Jun-28 15:39 301 8 gusting 18 21.7
2017-Jun-28 15:29 270 7 gusting 15 21.7
2017-Jun-28 15:19 317 6 gusting 13 22.2
2017-Jun-28 15:09 288 284 gusting 284 21.7
2017-Jun-28 14:59 325 7 gusting 17 21.7
2017-Jun-28 14:49 299 7 gusting 19 21.7
2017-Jun-28 14:39 348 8 gusting 18 21.7
2017-Jun-28 14:29 261 6 gusting 20 21.7
2017-Jun-28 14:19 332 6 gusting 18 21.7
2017-Jun-28 14:09 316 7 gusting 21 21.7
2017-Jun-28 13:59 329 6 gusting 19 21.7
2017-Jun-28 13:49 322 6 gusting 19 21.1
2017-Jun-28 13:39 328 8 gusting 18 21.1
2017-Jun-28 13:29 316 6 gusting 16 21.1
2017-Jun-28 13:19 300 7 gusting 20 20.6
2017-Jun-28 13:09 319 0 gusting 6 21.1
2017-Jun-28 12:59 264 1 gusting 7 20.6
2017-Jun-28 12:49 259 3 gusting 11 21.1
2017-Jun-28 12:39 313 0 gusting 5 21.1
2017-Jun-28 12:29 254 1 gusting 6 20.6
2017-Jun-28 12:19 215 0 gusting 6 20.6
2017-Jun-28 12:09 238 0 gusting 7 20.0
2017-Jun-28 11:59 221 0 gusting 6 20.0
2017-Jun-28 11:49 256 0 gusting 7 20.0
2017-Jun-28 11:39 261 4 gusting 8 18.3
2017-Jun-28 11:29 240 1 gusting 8 17.8
2017-Jun-28 11:19 259 3 gusting 12 17.8
2017-Jun-28 11:09 258 3 gusting 14 18.3
2017-Jun-28 10:59 259 4 gusting 10 20.0
2017-Jun-28 10:49 253 1 gusting 6 20.6
2017-Jun-28 10:39 247 0 gusting 8 20.0
2017-Jun-28 10:29 304 1 gusting 5 18.9
2017-Jun-28 10:19 252 0 gusting 7 18.3
2017-Jun-28 10:09 256 2 gusting 7 18.3
2017-Jun-28 09:59 251 1 gusting 7 17.8
2017-Jun-28 09:39 205 0 gusting 10 16.1
2017-Jun-28 09:29 256 3 gusting 9 16.1
2017-Jun-28 09:19 238 1 gusting 6 16.1
2017-Jun-28 09:09 217 0 gusting 8 16.1
2017-Jun-28 08:59 256 0 gusting 6 16.7
2017-Jun-28 08:49 258 16.7
2017-Jun-28 08:39 250 0 gusting 6 16.7
2017-Jun-28 08:29 205 16.7
2017-Jun-28 08:19 201 16.1
2017-Jun-28 08:09 247 0 gusting 5 15.6
2017-Jun-28 07:59 261 16.1
2017-Jun-28 07:49 254 0 gusting 5 16.1
2017-Jun-28 07:39 264 16.7
2017-Jun-28 07:29 273 16.1
2017-Jun-28 07:19 252 16.7
2017-Jun-28 07:10 261 0 gusting 4 15.6
2017-Jun-28 06:59 303 0 gusting 9 15.0
2017-Jun-28 06:49 313 1 gusting 9 15.0
2017-Jun-28 06:39 284 3 gusting 8 15.0
2017-Jun-28 06:29 317 6 gusting 12 15.6
2017-Jun-28 06:19 319 6 gusting 11 15.0
2017-Jun-28 06:09 270 1 gusting 11 15.0
2017-Jun-28 05:59 331 4 gusting 9 14.4
2017-Jun-28 05:49 334 1 gusting 9 14.4
2017-Jun-28 05:39 323 3 gusting 11 13.9
2017-Jun-28 05:29 294 2 gusting 12 13.9
2017-Jun-28 05:19 308 2 gusting 12 14.4
2017-Jun-28 05:09 308 3 gusting 9 14.4
2017-Jun-28 04:59 298 1 gusting 7 14.4
2017-Jun-28 04:49 319 0 gusting 7 13.9
2017-Jun-28 04:39 328 13.9
2017-Jun-28 04:29 321 0 gusting 10 13.9
2017-Jun-28 04:19 311 0 gusting 2 14.4
2017-Jun-28 04:09 323 0 gusting 6 13.9
2017-Jun-28 03:59 331 2 gusting 6 13.9
2017-Jun-28 03:49 306 3 gusting 9 13.9
2017-Jun-28 03:39 301 3 gusting 9 14.4
2017-Jun-28 03:29 324 3 gusting 9 14.4
2017-Jun-28 03:19 309 0 gusting 4 14.4
2017-Jun-28 03:09 278 0 gusting 11 14.4
2017-Jun-28 02:59 290 0 gusting 9 14.4
2017-Jun-28 02:49 317 2 gusting 10 14.4
2017-Jun-28 02:39 288 1 gusting 12 15.0
2017-Jun-28 02:29 288 2 gusting 11 15.0
2017-Jun-28 02:19 325 5 gusting 14 15.0
2017-Jun-28 02:09 314 6 gusting 13 15.0
2017-Jun-28 01:59 355 5 gusting 11 15.0
2017-Jun-28 01:49 324 1 gusting 6 15.0
2017-Jun-28 01:39 046 3 gusting 12 15.0
2017-Jun-28 01:29 314 6 gusting 11 15.0
2017-Jun-28 01:19 337 6 gusting 11 15.0
2017-Jun-28 01:09 324 5 gusting 11 15.0
2017-Jun-28 00:59 304 5 gusting 9 15.6
2017-Jun-28 00:49 321 5 gusting 8 15.6
2017-Jun-28 00:39 330 3 gusting 9 15.6
2017-Jun-28 00:29 322 4 gusting 13 15.6
2017-Jun-28 00:19 329 6 gusting 14 15.6
2017-Jun-28 00:09 324 5 gusting 13 15.6
2017-Jun-27 23:59 330 1 gusting 6 15.6
2017-Jun-27 23:49 331 2 gusting 9 15.6
2017-Jun-27 23:39 017 3 gusting 7 16.1
2017-Jun-27 23:29 331 0 gusting 7 16.1
2017-Jun-27 23:19 355 5 gusting 13 16.1
2017-Jun-27 23:09 323 4 gusting 9 16.7
2017-Jun-27 22:59 343 2 gusting 7 16.7
2017-Jun-27 22:49 312 4 gusting 11 16.7
2017-Jun-27 22:39 311 5 gusting 8 17.2
2017-Jun-27 22:29 318 3 gusting 10 17.2
2017-Jun-27 22:19 320 5 gusting 14 17.2
2017-Jun-27 22:09 321 2 gusting 9 17.8
2017-Jun-27 21:59 309 3 gusting 14 17.8
2017-Jun-27 21:49 321 2 gusting 9 17.8
2017-Jun-27 21:39 312 3 gusting 10 17.8
2017-Jun-27 21:29 306 4 gusting 8 18.3
2017-Jun-27 21:19 319 2 gusting 6 18.3
2017-Jun-27 21:09 281 3 gusting 10 18.3
2017-Jun-27 20:59 322 4 gusting 11 18.3
2017-Jun-27 20:49 296 1 gusting 7 18.3
2017-Jun-27 20:39 309 2 gusting 8 18.3
2017-Jun-27 20:29 319 4 gusting 8 18.3
2017-Jun-27 20:19 311 2 gusting 7 18.9
2017-Jun-27 19:59 323 3 gusting 8 19.4
2017-Jun-27 19:49 316 3 gusting 10 19.4
2017-Jun-27 19:39 282 3 gusting 9 19.4
2017-Jun-27 19:29 301 3 gusting 8 20.0
2017-Jun-27 19:19 306 0 gusting 6 20.0
2017-Jun-27 19:09 319 3 gusting 9 20.0
2017-Jun-27 18:59 309 4 gusting 6 20.6
2017-Jun-27 18:49 261 0 gusting 8 20.6
2017-Jun-27 18:39 315 5 gusting 13 20.6
2017-Jun-27 18:29 302 1 gusting 8 21.1
2017-Jun-27 18:19 300 1 gusting 9 21.7
2017-Jun-27 18:09 325 4 gusting 11 21.7
2017-Jun-27 18:00 296 4 gusting 13 21.7
2017-Jun-27 17:49 323 5 gusting 11 22.2
2017-Jun-27 17:39 276 2 gusting 9 22.8
2017-Jun-27 17:29 309 5 gusting 13 22.8
2017-Jun-27 17:19 316 3 gusting 12 23.3
2017-Jun-27 17:09 318 3 gusting 12 23.9
2017-Jun-27 17:00 284 0 gusting 10 23.9
2017-Jun-27 16:49 317 2 gusting 10 23.9
2017-Jun-27 16:39 306 4 gusting 13 23.9
2017-Jun-27 16:29 312 4 gusting 8 23.9
2017-Jun-27 16:19 277 3 gusting 12 23.9
2017-Jun-27 16:09 297 6 gusting 12 24.4
2017-Jun-27 15:59 309 5 gusting 14 23.9
2017-Jun-27 15:49 348 5 gusting 15 24.4
2017-Jun-27 15:39 317 5 gusting 15 24.4
2017-Jun-27 15:19 290 8 gusting 16 25.0
2017-Jun-27 15:09 290 6 gusting 14 25.0
2017-Jun-27 14:59 360 6 gusting 15 25.0
2017-Jun-27 14:49 290 5 gusting 15 25.0
2017-Jun-27 14:39 286 6 gusting 13 25.0
2017-Jun-27 14:29 311 6 gusting 16 25.0
2017-Jun-27 14:19 009 7 gusting 15 25.0
2017-Jun-27 14:09 313 7 gusting 14 25.0
2017-Jun-27 13:59 311 8 gusting 13 25.0
2017-Jun-27 13:49 318 7 gusting 15 24.4
2017-Jun-27 13:39 321 4 gusting 13 25.0
2017-Jun-27 13:29 331 6 gusting 13 24.4
2017-Jun-27 13:19 324 3 gusting 13 23.9
2017-Jun-27 13:09 248 24.4
2017-Jun-27 12:59 302 1 gusting 8 24.4
2017-Jun-27 12:49 328 2 gusting 6 25.0
2017-Jun-27 12:39 252 25.6
2017-Jun-27 12:29 271 0 gusting 5 25.6
2017-Jun-27 12:19 263 26.1
2017-Jun-27 12:09 291 2 gusting 6 26.1
2017-Jun-27 11:59 242 1 gusting 8 26.1
2017-Jun-27 11:49 240 1 gusting 9 26.7
2017-Jun-27 11:39 265 1 gusting 7 25.6
2017-Jun-27 11:29 178 1 gusting 8 26.1
2017-Jun-27 11:19 242 1 gusting 8 25.0
2017-Jun-27 11:09 202 1 gusting 9 25.0
2017-Jun-27 10:59 180 3 gusting 6 24.4
2017-Jun-27 10:49 200 3 gusting 7 23.9
2017-Jun-27 10:39 223 0 gusting 6 23.9
2017-Jun-27 10:29 204 0 gusting 6 23.3
2017-Jun-27 10:19 208 1 gusting 7 22.8
2017-Jun-27 10:09 186 1 gusting 6 22.8
2017-Jun-27 09:59 187 1 gusting 8 22.2
2017-Jun-27 09:49 224 0 gusting 6 21.1
2017-Jun-27 09:39 200 2 gusting 7 20.6
2017-Jun-27 09:29 194 3 gusting 8 20.0
2017-Jun-27 09:19 178 2 gusting 6 20.0
2017-Jun-27 09:09 178 1 gusting 4 19.4
2017-Jun-27 08:59 159 18.9
2017-Jun-27 08:49 178 17.2
2017-Jun-27 08:39 178 16.7
2017-Jun-27 08:29 178 0 gusting 4 16.7
2017-Jun-27 08:19 189 0 gusting 3 16.7
2017-Jun-27 08:09 196 16.7
2017-Jun-27 07:59 200 16.7
2017-Jun-27 07:49 200 0 gusting 4 16.1
2017-Jun-27 07:39 215 16.1
2017-Jun-27 07:29 215 16.1
2017-Jun-27 07:19 268 16.1
2017-Jun-27 07:09 268 16.1
2017-Jun-27 06:59 268 16.1
2017-Jun-27 06:49 268 16.1
2017-Jun-27 06:39 268 15.6
2017-Jun-27 06:29 268 15.6
2017-Jun-27 06:20 268 15.0
2017-Jun-27 06:09 268 15.0
2017-Jun-27 05:59 268 15.0
2017-Jun-27 05:49 268 15.0
2017-Jun-27 05:39 268 14.4
2017-Jun-27 05:29 268 14.4
2017-Jun-27 05:19 268 14.4
2017-Jun-27 05:09 268 14.4
2017-Jun-27 04:59 268 14.4
2017-Jun-27 04:49 268 15.0
2017-Jun-27 04:39 268 15.0
2017-Jun-27 04:29 268 15.6
2017-Jun-27 04:19 268 15.6
2017-Jun-27 04:09 268 15.6
2017-Jun-27 03:59 268 15.0
2017-Jun-27 03:49 268 15.0
2017-Jun-27 03:39 268 15.0
2017-Jun-27 03:29 268 15.0
2017-Jun-27 03:19 268 1 gusting 3 15.0
2017-Jun-27 03:09 268 15.0
2017-Jun-27 02:59 268 15.0
2017-Jun-27 02:49 268 15.6
2017-Jun-27 02:39 268 15.0
2017-Jun-27 02:29 268 15.6
2017-Jun-27 02:19 268 15.6
2017-Jun-27 02:09 268 15.6
2017-Jun-27 01:59 268 15.6
2017-Jun-27 01:49 268 15.6
2017-Jun-27 01:39 268 16.1
2017-Jun-27 01:29 268 16.7
2017-Jun-27 01:19 268 16.7
2017-Jun-27 01:09 268 16.7
2017-Jun-27 00:59 268 16.7
2017-Jun-27 00:49 268 16.7
2017-Jun-27 00:40 268 17.2
2017-Jun-27 00:29 268 17.2
2017-Jun-27 00:19 268 17.2
2017-Jun-27 00:10 268 17.8
2017-Jun-26 23:59 268 17.8
2017-Jun-26 23:49 268 18.3
2017-Jun-26 23:39 268 18.3
2017-Jun-26 23:29 268 18.9
2017-Jun-26 23:19 268 18.9
2017-Jun-26 23:09 268 19.4
2017-Jun-26 22:59 268 19.4
2017-Jun-26 22:49 268 20.0
2017-Jun-26 22:39 268 20.0
2017-Jun-26 22:29 268 20.0
2017-Jun-26 22:19 268 20.0
2017-Jun-26 22:09 257 20.6
2017-Jun-26 21:59 251 21.1
2017-Jun-26 21:49 251 21.1
2017-Jun-26 21:39 252 0 gusting 5 21.1
2017-Jun-26 21:29 254 0 gusting 6 21.7
2017-Jun-26 21:09 254 2 gusting 8 21.7
2017-Jun-26 20:59 253 0 gusting 6 21.7
2017-Jun-26 20:49 256 0 gusting 5 21.7
2017-Jun-26 20:39 248 0 gusting 4 21.7
2017-Jun-26 20:29 255 0 gusting 5 21.7
2017-Jun-26 20:19 261 0 gusting 4 22.2
2017-Jun-26 20:09 258 0 gusting 4 22.8
2017-Jun-26 19:59 240 22.8
2017-Jun-26 19:49 238 23.9
2017-Jun-26 19:29 234 25.0
2017-Jun-26 19:19 234 25.0
2017-Jun-26 19:09 234 25.6